Time;durP1;ratioP1;P1;durP2;ratioP2;P2;SDS_P1;SDS_P2;PMS_P1;PMS_P2;Temp;Humidity;BMP_temperature;BMP_pressure;BME280_temperature;BME280_humidity;BME280_pressure;Samples;Min_cycle;Max_cycle;Signal;HPM_P1;HPM_P2
2024/01/22 00:00:35;;;;;;;6.50;2.63;;;11.90;99.90;;;;;;5014242;28;20686;-19
2024/01/22 00:03:01;;;;;;;4.55;2.00;;;11.90;99.90;;;;;;4979095;28;20440;-19
2024/01/22 00:05:27;;;;;;;3.85;2.28;;;11.90;99.90;;;;;;5012925;28;20048;-24
2024/01/22 00:07:52;;;;;;;4.97;2.10;;;11.90;99.90;;;;;;5014198;28;20029;-21
2024/01/22 00:10:18;;;;;;;5.53;2.30;;;11.90;99.90;;;;;;4998199;28;20413;-23
2024/01/22 00:12:44;;;;;;;4.20;2.60;;;11.90;99.90;;;;;;5012128;28;20558;-22
2024/01/22 00:15:10;;;;;;;3.97;2.40;;;11.90;99.90;;;;;;5014948;28;20529;-20
2024/01/22 00:17:36;;;;;;;4.83;2.13;;;11.90;99.90;;;;;;5013512;28;20107;-25
2024/01/22 00:20:02;;;;;;;3.30;2.08;;;12.00;99.90;;;;;;4999516;28;20025;-22
2024/01/22 00:22:28;;;;;;;4.82;2.20;;;11.90;99.90;;;;;;4997816;28;20108;-22
2024/01/22 00:24:54;;;;;;;4.60;2.30;;;11.90;99.90;;;;;;5000265;28;20474;-23
2024/01/22 00:27:20;;;;;;;4.70;2.23;;;12.00;99.90;;;;;;5012310;28;20715;-22
2024/01/22 00:29:45;;;;;;;4.18;2.30;;;12.00;99.90;;;;;;5012512;28;20049;-22
2024/01/22 00:32:12;;;;;;;4.30;2.50;;;12.00;99.90;;;;;;5014437;28;20422;-23
2024/01/22 00:34:37;;;;;;;4.88;2.30;;;12.00;99.90;;;;;;5012216;28;20123;-24
2024/01/22 00:37:03;;;;;;;4.40;2.20;;;12.10;99.90;;;;;;4995951;28;21330;-24
2024/01/22 00:39:29;;;;;;;4.40;2.20;;;12.10;99.90;;;;;;4996742;28;20129;-22
2024/01/22 00:41:56;;;;;;;5.13;2.22;;;12.10;99.90;;;;;;5013803;28;20022;-24
2024/01/22 00:44:22;;;;;;;3.78;2.10;;;12.20;99.90;;;;;;4996744;28;20042;-21
2024/01/22 00:46:48;;;;;;;4.83;2.10;;;12.20;99.90;;;;;;5013366;28;20095;-22
2024/01/22 00:49:14;;;;;;;4.60;2.08;;;12.20;99.90;;;;;;5012549;28;20065;-23
2024/01/22 00:51:40;;;;;;;4.15;1.95;;;12.20;99.90;;;;;;5009084;28;20081;-21
2024/01/22 00:54:06;;;;;;;2.67;1.70;;;12.20;99.90;;;;;;4996339;28;20037;-24
2024/01/22 00:56:33;;;;;;;4.72;1.80;;;12.20;99.90;;;;;;5012120;28;20477;-24
2024/01/22 00:58:59;;;;;;;4.38;2.30;;;12.30;99.90;;;;;;5011460;28;20026;-21
2024/01/22 01:01:25;;;;;;;3.50;1.90;;;12.30;99.90;;;;;;5011741;28;20156;-21
2024/01/22 01:03:51;;;;;;;3.67;1.90;;;12.30;99.90;;;;;;5012630;28;20055;-22
2024/01/22 01:06:17;;;;;;;3.35;1.73;;;12.30;99.90;;;;;;5013815;28;20541;-21
2024/01/22 01:08:42;;;;;;;2.97;1.73;;;12.30;99.90;;;;;;5010068;28;20049;-22
2024/01/22 01:11:08;;;;;;;3.53;1.70;;;12.40;99.90;;;;;;5001444;28;20437;-23
2024/01/22 01:13:34;;;;;;;3.67;2.00;;;12.40;99.90;;;;;;5011646;28;20448;-23
2024/01/22 01:16:00;;;;;;;3.03;1.83;;;12.40;99.90;;;;;;5010369;28;20790;-21
2024/01/22 01:18:26;;;;;;;3.38;1.80;;;12.40;99.90;;;;;;5014650;28;20124;-21
2024/01/22 01:20:52;;;;;;;3.63;1.70;;;12.50;99.90;;;;;;5001304;28;20379;-24
2024/01/22 01:23:17;;;;;;;4.82;1.95;;;12.40;99.90;;;;;;5013790;28;20037;-22
2024/01/22 01:25:43;;;;;;;4.50;1.67;;;12.40;99.90;;;;;;5014997;28;20529;-25
2024/01/22 01:28:09;;;;;;;6.22;1.80;;;12.40;99.90;;;;;;4988168;28;20482;-22
2024/01/22 01:30:35;;;;;;;3.33;1.83;;;12.50;99.90;;;;;;5010565;28;20092;-21
2024/01/22 01:33:00;;;;;;;3.33;1.70;;;12.50;99.90;;;;;;5013663;28;20473;-24
2024/01/22 01:35:26;;;;;;;3.67;1.90;;;12.50;99.90;;;;;;5019253;28;20685;-22
2024/01/22 01:37:52;;;;;;;3.13;1.70;;;12.50;99.90;;;;;;5017386;28;20547;-22
2024/01/22 01:40:18;;;;;;;2.87;1.60;;;12.50;99.90;;;;;;5015904;28;20029;-24
2024/01/22 01:42:44;;;;;;;2.05;1.25;;;12.60;99.90;;;;;;5014613;28;20401;-23
2024/01/22 01:45:14;;;;;;;3.63;1.50;;;12.60;99.90;;;;;;4999630;28;20036;-24
2024/01/22 01:47:48;;;;;;;2.80;1.53;;;12.60;99.90;;;;;;5003736;28;20041;-22
2024/01/22 01:50:15;;;;;;;2.80;1.35;;;12.60;99.90;;;;;;5014123;28;20129;-23
2024/01/22 01:52:42;;;;;;;2.53;1.50;;;12.70;99.90;;;;;;5015650;28;20493;-25
2024/01/22 01:55:09;;;;;;;2.85;1.50;;;12.70;99.90;;;;;;5015202;28;20064;-21
2024/01/22 01:57:44;;;;;;;3.85;1.40;;;12.70;99.90;;;;;;4984694;28;20542;-21
2024/01/22 02:00:10;;;;;;;2.47;1.40;;;12.80;99.90;;;;;;5018745;28;20030;-21
2024/01/22 02:02:39;;;;;;;2.05;1.38;;;12.80;99.90;;;;;;4970425;28;20025;-28
2024/01/22 02:05:06;;;;;;;3.08;1.45;;;12.90;99.90;;;;;;4998565;28;20133;-22
2024/01/22 02:07:32;;;;;;;2.33;1.40;;;12.90;99.90;;;;;;4998269;28;20513;-25
2024/01/22 02:09:58;;;;;;;2.72;1.45;;;12.90;99.90;;;;;;5017013;28;20501;-22
2024/01/22 02:12:24;;;;;;;1.60;1.30;;;13.00;99.90;;;;;;5000511;28;20132;-23
2024/01/22 02:14:50;;;;;;;2.08;1.23;;;13.00;99.90;;;;;;5016235;28;20053;-22
2024/01/22 02:17:16;;;;;;;1.93;1.20;;;13.10;99.90;;;;;;4981120;28;20107;-24
2024/01/22 02:19:42;;;;;;;2.00;1.35;;;13.10;99.90;;;;;;5016466;28;20511;-25
2024/01/22 02:22:08;;;;;;;2.55;1.30;;;13.10;99.90;;;;;;5016813;28;20033;-24
2024/01/22 02:24:33;;;;;;;1.63;1.20;;;13.20;99.90;;;;;;5013594;28;20045;-25
2024/01/22 02:26:59;;;;;;;2.55;1.40;;;13.20;99.90;;;;;;4998832;28;21037;-23
2024/01/22 02:29:25;;;;;;;2.50;1.30;;;13.20;99.90;;;;;;5015168;28;20805;-24
2024/01/22 02:31:52;;;;;;;2.38;1.17;;;13.30;99.90;;;;;;5002566;28;20122;-21
2024/01/22 02:34:19;;;;;;;2.13;1.20;;;13.30;99.90;;;;;;5013991;28;20095;-24
2024/01/22 02:36:46;;;;;;;2.60;1.30;;;13.30;99.90;;;;;;4996479;28;20428;-21
2024/01/22 02:39:12;;;;;;;1.93;1.30;;;13.30;99.90;;;;;;4997394;28;20045;-25
2024/01/22 02:41:39;;;;;;;2.03;1.20;;;13.30;99.90;;;;;;4982170;28;20128;-22
2024/01/22 02:44:05;;;;;;;4.40;1.23;;;13.30;99.90;;;;;;5003568;28;20025;-21
2024/01/22 02:46:30;;;;;;;1.87;1.30;;;13.30;99.90;;;;;;4985113;28;20041;-21
2024/01/22 02:48:58;;;;;;;1.58;1.10;;;13.30;99.90;;;;;;5014796;28;20070;-21
2024/01/22 02:51:23;;;;;;;1.42;1.10;;;13.20;99.90;;;;;;4998331;28;20030;-22
2024/01/22 02:53:53;;;;;;;1.93;1.20;;;13.20;99.90;;;;;;5015601;28;20041;-20
2024/01/22 02:56:19;;;;;;;2.85;1.27;;;13.10;99.90;;;;;;5018292;28;20133;-20
2024/01/22 02:58:45;;;;;;;2.70;1.45;;;13.10;99.90;;;;;;5016403;28;20521;-18
2024/01/22 03:01:11;;;;;;;2.17;1.42;;;13.00;99.90;;;;;;5016160;28;20084;-18
2024/01/22 03:03:36;;;;;;;1.90;1.20;;;13.00;99.90;;;;;;5014598;28;20025;-17
2024/01/22 03:06:02;;;;;;;1.23;1.00;;;12.90;99.90;;;;;;5003098;28;20041;-17
2024/01/22 03:08:28;;;;;;;3.97;1.30;;;12.80;99.90;;;;;;5000839;28;20041;-19
2024/01/22 03:10:54;;;;;;;1.95;1.20;;;12.80;99.90;;;;;;5012176;28;20026;-17
2024/01/22 03:13:19;;;;;;;1.67;1.20;;;12.70;99.90;;;;;;4997236;28;20539;-18
2024/01/22 03:15:45;;;;;;;1.95;1.20;;;12.70;99.90;;;;;;4995661;28;20124;-18
2024/01/22 03:18:12;;;;;;;1.90;1.20;;;12.60;99.90;;;;;;5001810;28;20041;-19
2024/01/22 03:20:37;;;;;;;1.80;1.25;;;12.60;99.90;;;;;;5013292;28;20060;-18
2024/01/22 03:23:04;;;;;;;2.97;1.40;;;12.50;99.90;;;;;;5001574;28;20064;-18
2024/01/22 03:25:30;;;;;;;1.83;1.27;;;12.50;99.90;;;;;;5013164;28;20722;-19
2024/01/22 03:27:55;;;;;;;2.25;1.20;;;12.50;99.90;;;;;;4984908;28;20033;-18
2024/01/22 03:30:21;;;;;;;1.95;1.20;;;12.50;99.90;;;;;;5013115;28;20068;-19
2024/01/22 03:32:47;;;;;;;3.00;1.10;;;12.50;99.90;;;;;;4983858;28;20036;-19
2024/01/22 03:35:13;;;;;;;4.47;1.40;;;12.50;99.90;;;;;;5016461;28;20121;-18
2024/01/22 03:37:40;;;;;;;2.10;1.33;;;12.60;99.90;;;;;;5008920;28;20037;-19
2024/01/22 03:40:07;;;;;;;2.08;1.13;;;12.60;99.90;;;;;;5013139;28;20367;-20
2024/01/22 03:42:33;;;;;;;1.48;1.15;;;12.70;99.90;;;;;;5009715;28;20038;-19
2024/01/22 03:44:59;;;;;;;2.20;1.10;;;12.70;99.90;;;;;;4983201;28;20500;-19
2024/01/22 03:47:27;;;;;;;2.03;1.00;;;12.80;99.90;;;;;;5014087;28;20127;-20
2024/01/22 03:49:53;;;;;;;1.25;0.90;;;12.90;99.90;;;;;;5013554;28;20128;-21
2024/01/22 03:52:19;;;;;;;2.42;1.20;;;12.90;99.90;;;;;;4980032;28;20129;-20
2024/01/22 03:54:44;;;;;;;2.10;1.00;;;13.00;99.90;;;;;;4997798;28;20077;-23
2024/01/22 03:57:10;;;;;;;1.75;0.90;;;13.00;99.90;;;;;;5013068;28;20037;-19
2024/01/22 03:59:37;;;;;;;2.07;1.10;;;13.10;99.90;;;;;;5014300;28;20036;-21
2024/01/22 04:02:04;;;;;;;1.63;1.00;;;13.10;99.90;;;;;;5009847;28;20486;-20
2024/01/22 04:04:29;;;;;;;1.92;1.00;;;13.20;99.90;;;;;;5013447;28;20041;-22
2024/01/22 04:06:55;;;;;;;1.98;1.10;;;13.20;99.90;;;;;;4995307;28;20037;-19
2024/01/22 04:09:21;;;;;;;1.93;0.90;;;13.30;99.90;;;;;;5013541;28;20042;-22
2024/01/22 04:11:47;;;;;;;0.93;0.80;;;13.30;99.90;;;;;;5012904;28;20034;-19
2024/01/22 04:14:12;;;;;;;1.47;0.80;;;13.30;99.90;;;;;;4999741;28;20037;-22
2024/01/22 04:16:38;;;;;;;2.80;1.00;;;13.40;99.90;;;;;;5015818;28;20033;-19
2024/01/22 04:19:04;;;;;;;1.30;0.90;;;13.40;99.90;;;;;;4999530;28;20071;-22
2024/01/22 04:21:31;;;;;;;1.30;0.85;;;13.50;99.90;;;;;;5010230;28;20620;-20
2024/01/22 04:23:56;;;;;;;1.77;0.93;;;13.50;99.90;;;;;;5001884;28;20103;-25
2024/01/22 04:26:22;;;;;;;1.33;0.80;;;13.70;99.90;;;;;;5010825;28;20029;-23
2024/01/22 04:28:48;;;;;;;2.38;0.80;;;13.70;99.90;;;;;;5008953;28;20095;-21
2024/01/22 04:31:14;;;;;;;1.63;0.80;;;13.70;99.90;;;;;;5012203;28;20041;-21
2024/01/22 04:33:43;;;;;;;2.07;1.13;;;13.80;99.90;;;;;;4971925;28;20482;-21
2024/01/22 04:36:09;;;;;;;1.10;0.70;;;13.80;99.90;;;;;;5015202;28;20046;-21
2024/01/22 04:38:35;;;;;;;1.88;0.70;;;13.80;99.90;;;;;;5001539;28;20070;-20
2024/01/22 04:41:01;;;;;;;1.50;0.90;;;13.90;99.90;;;;;;5013534;28;20065;-21
2024/01/22 04:43:26;;;;;;;1.73;0.80;;;13.90;99.90;;;;;;5012203;28;20120;-22
2024/01/22 04:45:52;;;;;;;1.30;0.70;;;14.00;99.90;;;;;;4999561;28;20300;-22
2024/01/22 04:48:18;;;;;;;2.40;0.80;;;14.00;99.90;;;;;;5012549;28;20042;-18
2024/01/22 04:50:43;;;;;;;1.80;0.80;;;14.10;99.90;;;;;;5011760;28;20037;-19
2024/01/22 04:53:09;;;;;;;1.03;0.80;;;14.10;99.90;;;;;;5011054;28;20033;-18
2024/01/22 04:55:35;;;;;;;2.70;0.80;;;14.20;99.90;;;;;;5008615;28;20129;-20
2024/01/22 04:58:00;;;;;;;1.33;0.80;;;14.20;99.90;;;;;;5014427;28;20096;-19
2024/01/22 05:00:26;;;;;;;1.97;0.90;;;14.20;99.90;;;;;;5017543;28;20463;-19
2024/01/22 05:02:52;;;;;;;1.45;0.77;;;14.20;99.90;;;;;;5016111;28;20048;-19
2024/01/22 05:05:18;;;;;;;2.20;0.80;;;14.10;99.90;;;;;;4998437;28;20342;-21
2024/01/22 05:07:43;;;;;;;2.45;0.90;;;14.10;99.90;;;;;;5015016;28;20041;-20
2024/01/22 05:10:09;;;;;;;1.08;0.80;;;14.10;99.90;;;;;;5016002;28;20545;-20
2024/01/22 05:12:39;;;;;;;2.03;0.90;;;14.00;99.90;;;;;;5002941;28;20048;-20
2024/01/22 05:15:05;;;;;;;1.17;0.70;;;14.00;99.90;;;;;;5014652;28;20630;-19
2024/01/22 05:17:32;;;;;;;2.15;0.88;;;14.00;99.90;;;;;;4996198;28;20567;-18
2024/01/22 05:19:58;;;;;;;1.60;0.88;;;14.00;99.90;;;;;;5012484;28;20365;-19
2024/01/22 05:22:25;;;;;;;3.13;0.90;;;13.90;99.90;;;;;;5003465;28;20130;-18
2024/01/22 05:24:50;;;;;;;1.27;0.70;;;13.90;99.90;;;;;;4982529;28;20022;-19
2024/01/22 05:27:16;;;;;;;1.58;0.93;;;13.90;99.90;;;;;;5014854;28;20037;-18
2024/01/22 05:29:42;;;;;;;2.70;0.87;;;13.80;99.90;;;;;;5002145;28;20049;-18
2024/01/22 05:32:09;;;;;;;1.15;0.90;;;13.80;99.90;;;;;;5003447;28;20049;-17
2024/01/22 05:34:34;;;;;;;2.00;0.80;;;13.70;99.90;;;;;;5017008;28;20037;-16
2024/01/22 05:37:01;;;;;;;1.77;0.80;;;13.70;99.90;;;;;;5015610;28;20445;-15
2024/01/22 05:39:27;;;;;;;2.38;0.90;;;13.60;99.90;;;;;;4992067;28;20045;-16
2024/01/22 05:41:54;;;;;;;2.17;0.90;;;13.60;99.90;;;;;;5000699;28;20045;-16
2024/01/22 05:44:20;;;;;;;1.33;0.70;;;13.50;99.90;;;;;;5014380;28;20071;-16
2024/01/22 05:46:45;;;;;;;3.13;1.00;;;13.50;99.90;;;;;;5000064;28;20045;-15
2024/01/22 05:49:11;;;;;;;1.35;1.00;;;13.50;99.90;;;;;;5017102;28;20349;-14
2024/01/22 05:51:37;;;;;;;2.07;1.10;;;13.40;99.90;;;;;;4997963;28;20065;-15
2024/01/22 05:54:03;;;;;;;2.17;1.00;;;13.30;99.90;;;;;;5003042;28;20893;-15
2024/01/22 05:56:28;;;;;;;1.17;0.80;;;12.40;99.90;;;;;;5015649;28;20124;-15
2024/01/22 05:58:56;;;;;;;1.23;0.80;;;13.30;99.90;;;;;;4999574;28;20025;-14
2024/01/22 06:01:23;;;;;;;1.63;0.90;;;13.30;99.90;;;;;;5015025;28;20315;-14
2024/01/22 06:03:49;;;;;;;1.23;0.90;;;13.30;99.90;;;;;;5011631;28;20029;-14
2024/01/22 06:06:15;;;;;;;1.70;1.00;;;13.20;99.90;;;;;;5001534;28;20519;-15
2024/01/22 06:08:45;;;;;;;1.42;1.20;;;13.20;99.90;;;;;;5003410;28;20048;-15
2024/01/22 06:11:12;;;;;;;1.63;1.15;;;13.20;99.90;;;;;;4998667;28;20678;-15
2024/01/22 06:13:44;;;;;;;1.08;0.90;;;13.20;99.90;;;;;;5002206;28;20151;-15
2024/01/22 06:16:11;;;;;;;1.85;0.98;;;13.20;99.90;;;;;;4999038;28;20285;-14
2024/01/22 06:18:38;;;;;;;1.50;0.97;;;13.20;99.90;;;;;;5016404;28;20641;-15
2024/01/22 06:21:04;;;;;;;1.65;1.00;;;13.20;99.90;;;;;;5011065;28;20041;-14
2024/01/22 06:23:31;;;;;;;2.00;1.08;;;13.20;99.90;;;;;;4997593;28;20545;-15
2024/01/22 06:25:57;;;;;;;1.67;0.70;;;13.20;99.90;;;;;;5012788;28;20510;-15
2024/01/22 06:28:29;;;;;;;1.70;0.80;;;13.20;99.90;;;;;;5012554;28;20145;-14
2024/01/22 06:30:55;;;;;;;1.60;0.80;;;13.20;99.90;;;;;;5013451;28;20034;-15
2024/01/22 06:33:21;;;;;;;1.88;0.88;;;13.20;99.90;;;;;;5014444;28;20049;-14
2024/01/22 06:35:48;;;;;;;2.13;1.00;;;13.30;99.90;;;;;;5013287;28;20714;-15
2024/01/22 06:38:18;;;;;;;1.52;0.95;;;13.20;99.90;;;;;;4993815;28;20045;-15
2024/01/22 06:40:47;;;;;;;3.28;1.02;;;13.20;99.90;;;;;;5001783;28;20037;-15
2024/01/22 06:43:13;;;;;;;2.53;0.83;;;13.30;99.90;;;;;;5014222;28;20436;-15
2024/01/22 06:45:39;;;;;;;2.35;0.85;;;13.20;99.90;;;;;;4996324;28;20429;-15
2024/01/22 06:48:05;;;;;;;2.25;1.00;;;13.20;99.90;;;;;;5014974;28;20025;-15
2024/01/22 06:50:31;;;;;;;1.35;0.90;;;13.20;99.90;;;;;;4981828;28;20656;-14
2024/01/22 06:52:57;;;;;;;3.03;1.20;;;13.30;99.90;;;;;;5014981;28;20026;-15
2024/01/22 06:55:23;;;;;;;2.78;1.00;;;13.30;99.90;;;;;;5014208;28;20150;-14
2024/01/22 06:57:50;;;;;;;2.03;1.00;;;13.20;99.90;;;;;;5012260;28;20120;-14
2024/01/22 07:00:18;;;;;;;2.65;0.90;;;13.30;99.90;;;;;;4995758;28;20025;-14
2024/01/22 07:02:45;;;;;;;3.50;1.40;;;13.30;99.90;;;;;;5004667;28;20452;-15
2024/01/22 07:05:11;;;;;;;4.60;1.23;;;13.30;99.90;;;;;;5000945;28;20645;-16
2024/01/22 07:07:38;;;;;;;4.60;1.30;;;13.30;99.90;;;;;;5011891;28;20425;-15
2024/01/22 07:10:08;;;;;;;7.90;1.60;;;13.30;99.90;;;;;;4999003;28;20033;-15
2024/01/22 07:12:35;;;;;;;4.93;1.30;;;13.30;99.90;;;;;;4998711;28;20433;-15
2024/01/22 07:15:01;;;;;;;4.53;0.97;;;13.30;99.90;;;;;;5009581;28;20720;-15
2024/01/22 07:17:28;;;;;;;4.22;1.40;;;13.30;99.90;;;;;;4995530;28;20039;-15
2024/01/22 07:19:54;;;;;;;4.78;1.23;;;13.30;99.90;;;;;;4994412;28;20070;-15
2024/01/22 07:22:20;;;;;;;4.93;1.10;;;13.30;99.90;;;;;;4982435;28;20509;-14
2024/01/22 07:24:46;;;;;;;4.47;1.00;;;13.30;99.90;;;;;;5011899;28;20791;-14
2024/01/22 07:27:11;;;;;;;3.65;1.08;;;13.40;99.90;;;;;;4998869;28;20056;-14
2024/01/22 07:29:38;;;;;;;2.93;0.93;;;13.40;99.90;;;;;;4992697;28;20053;-15
2024/01/22 07:32:04;;;;;;;4.03;0.98;;;13.40;99.90;;;;;;5012973;28;20033;-15
2024/01/22 07:34:30;;;;;;;4.28;1.00;;;13.40;99.90;;;;;;5013577;28;20677;-15
2024/01/22 07:36:55;;;;;;;3.70;0.87;;;13.40;99.90;;;;;;5011949;28;20041;-15
2024/01/22 07:39:21;;;;;;;4.30;0.90;;;13.40;99.90;;;;;;5011431;28;20059;-15
2024/01/22 07:41:47;;;;;;;2.47;0.87;;;13.40;99.90;;;;;;4986498;28;20038;-15
2024/01/22 07:44:12;;;;;;;3.50;0.90;;;13.40;99.90;;;;;;5010265;28;20044;-15
2024/01/22 07:46:38;;;;;;;2.17;0.90;;;13.30;99.90;;;;;;4994349;28;20030;-14
2024/01/22 07:49:04;;;;;;;4.18;0.90;;;13.40;99.90;;;;;;5011661;28;20164;-14
2024/01/22 07:51:30;;;;;;;2.42;0.90;;;13.30;99.90;;;;;;4981163;28;20075;-15
2024/01/22 07:53:56;;;;;;;1.83;0.90;;;13.30;99.90;;;;;;4985422;28;20037;-14
2024/01/22 07:56:23;;;;;;;3.70;1.10;;;13.30;99.90;;;;;;4991995;28;20037;-15
2024/01/22 07:58:49;;;;;;;2.00;0.90;;;13.20;99.90;;;;;;5006112;28;20399;-15
2024/01/22 08:01:14;;;;;;;2.63;0.90;;;13.30;99.90;;;;;;4994030;28;20032;-16
2024/01/22 08:03:40;;;;;;;4.15;1.10;;;13.30;99.90;;;;;;4984607;28;20049;-15
2024/01/22 08:06:06;;;;;;;6.83;1.17;;;13.30;99.90;;;;;;4983525;28;20792;-15
2024/01/22 08:08:32;;;;;;;3.47;1.00;;;13.30;99.90;;;;;;5010988;28;20034;-16
2024/01/22 08:10:57;;;;;;;3.63;1.00;;;13.30;99.90;;;;;;5009499;28;20059;-15
2024/01/22 08:13:23;;;;;;;4.30;1.30;;;13.40;99.90;;;;;;5011116;28;20060;-15
2024/01/22 08:15:50;;;;;;;2.90;0.93;;;13.50;99.90;;;;;;5011650;28;20511;-15
2024/01/22 08:18:16;;;;;;;3.75;1.10;;;13.40;99.90;;;;;;5010479;28;20060;-15
2024/01/22 08:20:42;;;;;;;3.67;1.30;;;13.50;99.90;;;;;;4993083;28;20088;-15
2024/01/22 08:23:09;;;;;;;3.58;1.00;;;13.50;99.90;;;;;;4994248;28;20037;-15
2024/01/22 08:25:35;;;;;;;3.05;1.15;;;13.50;99.90;;;;;;5009184;28;20025;-14
2024/01/22 08:28:01;;;;;;;2.97;1.07;;;13.60;99.90;;;;;;5013009;28;20473;-15
2024/01/22 08:30:27;;;;;;;4.03;1.20;;;13.60;99.90;;;;;;4993252;28;20076;-15
2024/01/22 08:32:54;;;;;;;3.78;0.95;;;13.60;99.90;;;;;;4994608;28;20136;-15
2024/01/22 08:35:20;;;;;;;4.10;1.08;;;13.60;99.90;;;;;;5010898;28;20033;-15
2024/01/22 08:37:52;;;;;;;2.60;1.00;;;13.70;99.90;;;;;;4994574;28;20037;-15
2024/01/22 08:40:21;;;;;;;5.10;1.30;;;13.70;99.90;;;;;;4996288;28;20426;-16
2024/01/22 08:42:54;;;;;;;8.25;2.30;;;13.70;99.90;;;;;;5011424;28;20080;-16
2024/01/22 08:45:21;;;;;;;5.07;1.83;;;13.70;99.90;;;;;;5010089;28;20041;-14
2024/01/22 08:47:49;;;;;;;5.55;1.95;;;13.70;99.90;;;;;;5011548;28;20221;-15
2024/01/22 08:50:17;;;;;;;5.37;1.63;;;13.70;99.90;;;;;;5008004;28;20400;-16
2024/01/22 08:52:45;;;;;;;4.07;1.27;;;13.80;99.90;;;;;;4994958;28;20123;-15
2024/01/22 08:55:11;;;;;;;4.55;1.08;;;13.70;99.90;;;;;;5009540;28;20044;-15
2024/01/22 08:57:37;;;;;;;4.15;1.10;;;13.70;99.90;;;;;;5010920;28;20037;-15
2024/01/22 09:00:10;;;;;;;2.92;0.90;;;13.70;99.90;;;;;;5007429;28;20120;-15
2024/01/22 09:02:39;;;;;;;4.63;1.20;;;13.70;99.90;;;;;;5009102;28;20030;-15
2024/01/22 09:05:10;;;;;;;5.68;1.58;;;13.60;99.90;;;;;;5008302;28;20042;-16
2024/01/22 09:07:36;;;;;;;4.18;0.90;;;13.60;99.90;;;;;;4992103;28;20042;-15
2024/01/22 09:10:07;;;;;;;5.70;1.10;;;13.60;99.90;;;;;;4993800;28;20037;-15
2024/01/22 09:12:36;;;;;;;2.47;0.90;;;13.70;99.90;;;;;;4990772;28;20187;-15
2024/01/22 09:15:06;;;;;;;5.83;1.20;;;13.60;99.90;;;;;;5009599;28;20030;-16
2024/01/22 09:17:32;;;;;;;4.70;1.20;;;13.70;99.90;;;;;;4998465;28;20113;-15
2024/01/22 09:19:58;;;;;;;4.05;1.30;;;13.70;99.90;;;;;;5007576;28;20065;-15
2024/01/22 09:22:25;;;;;;;4.45;1.25;;;13.70;99.90;;;;;;5008726;28;20060;-15
2024/01/22 09:24:51;;;;;;;6.70;1.77;;;13.70;99.90;;;;;;5010822;28;20033;-15
2024/01/22 09:27:17;;;;;;;6.40;1.17;;;13.80;99.90;;;;;;5012081;28;20043;-17
2024/01/22 09:29:43;;;;;;;5.38;0.90;;;13.70;99.90;;;;;;4992275;28;20068;-15
2024/01/22 09:32:11;;;;;;;4.55;1.30;;;13.70;99.90;;;;;;5011310;28;20504;-16
2024/01/22 09:34:38;;;;;;;6.33;1.10;;;13.70;99.90;;;;;;5008576;28;20038;-15
2024/01/22 09:37:04;;;;;;;6.68;1.33;;;13.70;99.90;;;;;;4994526;28;20049;-16
2024/01/22 09:39:30;;;;;;;9.13;1.30;;;13.70;99.90;;;;;;5007790;28;20041;-15
2024/01/22 09:41:59;;;;;;;6.63;1.40;;;13.70;99.90;;;;;;5010087;28;20026;-16
2024/01/22 09:44:26;;;;;;;5.13;1.02;;;13.70;99.90;;;;;;5013546;28;20040;-16
2024/01/22 09:46:52;;;;;;;7.57;1.50;;;13.60;99.90;;;;;;4996288;28;20037;-17
2024/01/22 09:49:18;;;;;;;4.00;1.02;;;13.70;99.90;;;;;;5001514;28;20038;-15
2024/01/22 09:51:45;;;;;;;6.43;1.48;;;13.60;99.90;;;;;;5012961;28;20577;-16
2024/01/22 09:54:17;;;;;;;5.70;1.15;;;13.60;99.90;;;;;;4998083;28;20049;-15
2024/01/22 09:56:50;;;;;;;4.47;1.38;;;13.50;99.90;;;;;;4994276;28;20041;-16
2024/01/22 09:59:18;;;;;;;5.00;1.37;;;13.50;99.90;;;;;;5015892;28;20240;-15
2024/01/22 10:01:49;;;;;;;5.90;1.27;;;13.50;99.90;;;;;;5013540;28;20033;-14
2024/01/22 10:04:16;;;;;;;4.45;1.00;;;13.40;99.90;;;;;;5015175;28;20175;-14
2024/01/22 10:06:42;;;;;;;3.55;0.90;;;13.40;99.90;;;;;;4997865;28;20033;-14
2024/01/22 10:09:08;;;;;;;4.53;0.93;;;13.30;99.90;;;;;;5011142;28;20300;-14
2024/01/22 10:11:35;;;;;;;5.10;1.20;;;13.30;99.90;;;;;;5012445;28;20049;-15
2024/01/22 10:14:01;;;;;;;3.50;0.90;;;13.20;99.90;;;;;;5014242;28;20034;-14
2024/01/22 10:16:28;;;;;;;3.90;1.00;;;13.20;99.90;;;;;;5013906;28;20466;-14
2024/01/22 10:19:08;;;;;;;3.67;1.00;;;13.20;99.90;;;;;;5012510;28;20127;-14
2024/01/22 10:21:38;;;;;;;5.68;1.10;;;13.20;99.90;;;;;;4986894;28;20038;-15
2024/01/22 10:24:05;;;;;;;2.97;0.95;;;13.10;99.90;;;;;;5001654;28;20100;-13
2024/01/22 10:26:32;;;;;;;6.22;1.23;;;13.10;99.90;;;;;;5011651;28;20040;-14
2024/01/22 10:29:17;;;;;;;3.95;1.10;;;13.10;99.90;;;;;;5001720;28;20072;-13
2024/01/22 10:31:56;;;;;;;4.73;1.30;;;13.10;99.90;;;;;;4999140;28;20046;-14
2024/01/22 10:34:30;;;;;;;6.05;1.10;;;13.10;99.90;;;;;;5011548;28;20048;-14
2024/01/22 10:37:09;;;;;;;5.65;1.80;;;13.10;99.90;;;;;;5013843;28;20044;-18
2024/01/22 10:39:42;;;;;;;8.30;2.20;;;13.10;99.90;;;;;;5014117;28;20038;-16
2024/01/22 10:42:11;;;;;;;6.95;1.27;;;13.10;99.90;;;;;;5012763;28;20049;-17
2024/01/22 10:44:38;;;;;;;7.20;1.80;;;13.20;99.90;;;;;;5011803;28;20041;-17
2024/01/22 10:47:04;;;;;;;4.32;1.10;;;13.20;99.90;;;;;;5010164;28;20420;-14
2024/01/22 10:49:31;;;;;;;8.70;1.85;;;13.30;99.90;;;;;;4983273;28;20034;-14
2024/01/22 10:52:05;;;;;;;5.47;1.35;;;13.20;99.90;;;;;;4996087;28;20069;-14
2024/01/22 10:54:32;;;;;;;5.50;1.50;;;13.30;99.90;;;;;;4996526;28;20034;-14
2024/01/22 10:57:24;;;;;;;8.10;1.93;;;13.30;99.90;;;;;;4991666;28;20029;-14
2024/01/22 10:59:53;;;;;;;8.90;1.42;;;13.40;99.90;;;;;;5008868;28;20064;-14
2024/01/22 11:02:23;;;;;;;9.52;1.80;;;13.40;99.90;;;;;;4990987;28;20037;-15
2024/01/22 11:04:54;;;;;;;10.73;1.67;;;13.50;99.90;;;;;;5009112;28;20034;-14
2024/01/22 11:07:28;;;;;;;8.25;1.60;;;13.50;99.90;;;;;;5009774;28;20105;-14
2024/01/22 11:09:57;;;;;;;11.77;2.33;;;13.50;99.90;;;;;;5011817;28;20691;-14
2024/01/22 11:12:25;;;;;;;12.32;2.30;;;13.50;99.90;;;;;;5009296;28;20648;-14
2024/01/22 11:14:52;;;;;;;8.82;1.33;;;13.50;99.90;;;;;;5012603;28;20076;-14
2024/01/22 11:17:19;;;;;;;14.50;3.40;;;13.50;99.90;;;;;;4967123;28;20064;-15
2024/01/22 11:19:45;;;;;;;11.32;1.58;;;13.60;99.90;;;;;;5013769;28;20088;-15
2024/01/22 11:22:29;;;;;;;9.50;1.87;;;13.60;99.90;;;;;;5013649;28;20030;-14
2024/01/22 11:25:02;;;;;;;11.45;2.08;;;13.70;99.90;;;;;;4983937;28;20044;-14
2024/01/22 11:27:42;;;;;;;7.43;1.50;;;13.80;99.90;;;;;;4999419;28;20041;-14
2024/01/22 11:30:23;;;;;;;19.48;2.42;;;13.90;99.90;;;;;;5012447;28;20094;-14
2024/01/22 11:32:49;;;;;;;9.93;1.90;;;14.20;99.90;;;;;;5012832;28;20029;-14
2024/01/22 11:35:33;;;;;;;7.80;1.60;;;14.30;99.90;;;;;;5011012;28;20119;-15
2024/01/22 11:37:59;;;;;;;10.02;1.90;;;14.60;99.90;;;;;;5010950;28;20058;-14
2024/01/22 11:40:52;;;;;;;10.25;1.60;;;14.80;99.90;;;;;;4982877;28;20050;-14
2024/01/22 11:43:20;;;;;;;12.70;1.92;;;15.20;99.90;;;;;;5012076;28;20021;-16
2024/01/22 11:45:47;;;;;;;10.57;2.13;;;15.60;99.90;;;;;;5011351;28;20120;-16
2024/01/22 11:48:17;;;;;;;11.90;2.35;;;15.80;99.90;;;;;;4994983;28;20379;-16
2024/01/22 11:50:55;;;;;;;9.18;1.90;;;16.00;99.90;;;;;;4973067;28;20049;-15
2024/01/22 11:53:21;;;;;;;13.38;2.38;;;16.10;99.90;;;;;;4999936;28;20080;-16
2024/01/22 11:55:59;;;;;;;13.00;2.00;;;16.20;99.90;;;;;;4976562;28;20115;-16
2024/01/22 11:58:25;;;;;;;9.70;1.80;;;16.20;99.90;;;;;;4999845;28;20618;-16
2024/01/22 12:00:52;;;;;;;11.93;2.28;;;16.30;99.90;;;;;;5011472;28;20044;-16
2024/01/22 12:03:31;;;;;;;17.85;2.50;;;16.50;99.90;;;;;;5011366;28;20084;-16
2024/01/22 12:05:58;;;;;;;10.33;1.67;;;16.60;99.90;;;;;;5010349;28;20324;-17
2024/01/22 12:08:23;;;;;;;9.50;1.73;;;16.70;99.90;;;;;;4980053;28;20041;-16
2024/01/22 12:10:52;;;;;;;10.00;2.30;;;16.80;99.90;;;;;;5010610;28;20033;-16
2024/01/22 12:13:18;;;;;;;13.20;1.83;;;16.90;99.90;;;;;;4998457;28;20033;-18
2024/01/22 12:15:44;;;;;;;9.05;2.15;;;17.00;99.90;;;;;;5011107;28;20718;-17
2024/01/22 12:18:10;;;;;;;9.15;1.85;;;17.10;99.90;;;;;;4975060;28;20042;-17
2024/01/22 12:20:37;;;;;;;11.13;1.93;;;17.30;99.90;;;;;;5010508;28;20053;-18
2024/01/22 12:23:04;;;;;;;10.63;1.95;;;17.40;99.90;;;;;;4998410;28;20032;-17
2024/01/22 12:25:38;;;;;;;7.63;1.48;;;17.50;99.90;;;;;;4999659;28;20048;-20
2024/01/22 12:28:10;;;;;;;6.77;1.50;;;17.40;99.90;;;;;;5009149;28;20033;-18
2024/01/22 12:30:35;;;;;;;8.85;1.60;;;17.40;99.90;;;;;;4973603;28;20041;-18
2024/01/22 12:33:01;;;;;;;8.25;1.30;;;17.20;99.90;;;;;;5010753;28;20042;-19
2024/01/22 12:35:27;;;;;;;5.40;1.20;;;17.20;99.90;;;;;;4992933;28;20064;-18
2024/01/22 12:37:52;;;;;;;6.63;1.73;;;17.10;99.90;;;;;;4985103;28;20051;-19
2024/01/22 12:40:19;;;;;;;14.77;2.00;;;17.00;99.90;;;;;;5010570;28;20030;-19
2024/01/22 12:42:50;;;;;;;10.80;1.80;;;16.90;99.90;;;;;;5009126;28;20878;-19
2024/01/22 12:45:19;;;;;;;10.52;1.75;;;16.90;99.90;;;;;;4984518;28;20029;-19